createdAt,value
2023-01-20T00:04:14.043Z,88.77
2023-01-20T00:10:16.186Z,88.75
2023-01-20T00:15:24.513Z,88.06
2023-01-20T00:20:47.712Z,88.55
2023-01-20T00:25:51.738Z,88.72
2023-01-20T00:30:55.295Z,88.55
2023-01-20T00:36:20.557Z,88.62
2023-01-20T00:42:33.803Z,88.58
2023-01-20T00:54:07.408Z,88.21
2023-01-20T00:59:13.423Z,88.05
2023-01-20T01:04:16.702Z,87.01
2023-01-20T01:09:22.019Z,88.09
2023-01-20T01:14:26.245Z,87.93
2023-01-20T01:19:29.496Z,86.80
2023-01-20T01:24:32.880Z,85.83
2023-01-20T01:29:36.180Z,86.20
2023-01-20T01:34:40.087Z,86.10
2023-01-20T01:39:44.331Z,86.69
2023-01-20T01:45:06.371Z,86.51
2023-01-20T01:50:43.637Z,86.39
2023-01-20T01:56:14.708Z,86.48
2023-01-20T02:01:26.827Z,86.43
2023-01-20T02:07:31.609Z,86.60
2023-01-20T02:12:47.639Z,87.29
2023-01-20T02:18:34.009Z,87.22
2023-01-20T02:24:53.395Z,88.17
2023-01-20T02:31:05.036Z,88.17
2023-01-20T02:36:19.264Z,88.23
2023-01-20T02:41:51.809Z,88.82
2023-01-20T02:47:27.207Z,88.79
2023-01-20T02:52:37.397Z,88.47
2023-01-20T02:57:46.132Z,88.17
2023-01-20T03:02:53.895Z,88.31
2023-01-20T03:07:59.838Z,88.19
2023-01-20T03:13:16.795Z,88.17
2023-01-20T03:18:21.064Z,87.72
2023-01-20T03:23:27.950Z,86.88
2023-01-20T03:28:53.297Z,87.03
2023-01-20T03:33:59.812Z,86.81
2023-01-20T03:39:04.619Z,86.11
2023-01-20T03:44:41.002Z,86.32
2023-01-20T03:49:59.300Z,86.29
2023-01-20T03:55:14.807Z,85.43
2023-01-20T04:00:18.397Z,85.58
2023-01-20T04:05:21.922Z,85.89
2023-01-20T04:10:27.726Z,85.62
2023-01-20T04:18:59.300Z,86.26
2023-01-20T04:24:23.050Z,87.16
2023-01-20T04:29:27.929Z,86.60
2023-01-20T04:34:31.272Z,87.08
2023-01-20T04:39:34.589Z,87.11
2023-01-20T04:44:38.290Z,86.62
2023-01-20T04:49:41.655Z,87.22
2023-01-20T04:54:45.215Z,86.97
2023-01-20T04:59:48.472Z,86.64
2023-01-20T05:04:51.697Z,86.35
2023-01-20T05:09:54.963Z,86.28
2023-01-20T05:14:58.215Z,85.69
2023-01-20T05:20:01.513Z,85.40
2023-01-20T05:25:05.635Z,85.66
2023-01-20T05:30:12.370Z,86.31
2023-01-20T05:35:16.152Z,85.49
2023-01-20T05:40:19.749Z,85.21
2023-01-20T05:45:23.767Z,84.63
2023-01-20T05:50:29.795Z,84.43
2023-01-20T05:55:33.660Z,84.62
2023-01-20T06:00:36.939Z,83.86
2023-01-20T06:05:40.431Z,83.55
2023-01-20T06:10:43.867Z,84.64
2023-01-20T06:15:54.472Z,84.67
2023-01-20T06:20:59.806Z,84.62
2023-01-20T06:26:06.884Z,84.91
2023-01-20T06:31:15.439Z,85.42
2023-01-20T06:36:18.771Z,84.77
2023-01-20T06:41:22.293Z,84.50
2023-01-20T06:46:25.683Z,84.55
2023-01-20T06:51:30.721Z,84.98
2023-01-20T06:56:35.238Z,84.96
2023-01-20T07:01:39.182Z,84.25
2023-01-20T07:06:43.640Z,84.67
2023-01-20T07:11:48.672Z,85.06
2023-01-20T07:16:52.113Z,85.33
2023-01-20T07:21:55.455Z,85.46
2023-01-20T07:26:59.275Z,84.76
2023-01-20T07:33:21.011Z,84.23
2023-01-20T07:38:25.011Z,84.81
2023-01-20T07:43:29.105Z,84.37
2023-01-20T07:48:34.014Z,84.60
2023-01-20T07:53:39.891Z,84.62
2023-01-20T07:58:45.592Z,85.47
2023-01-20T08:03:50.408Z,86.06
2023-01-20T08:09:26.266Z,85.48
2023-01-20T08:14:42.787Z,85.47
2023-01-20T08:19:47.622Z,85.89
2023-01-20T08:24:51.215Z,85.99
2023-01-20T08:29:55.760Z,85.62
2023-01-20T08:34:59.119Z,85.55
2023-01-20T08:40:02.498Z,85.74
2023-01-20T08:45:10.874Z,86.49
2023-01-20T08:50:14.923Z,86.10
2023-01-20T08:55:18.221Z,86.13
2023-01-20T09:00:21.915Z,86.70
2023-01-20T09:05:25.259Z,86.83
2023-01-20T09:10:28.768Z,86.67
2023-01-20T09:15:32.105Z,86.61
2023-01-20T09:20:36.060Z,86.45
2023-01-20T09:25:39.374Z,86.69
2023-01-20T09:30:43.917Z,86.73
2023-01-20T09:35:58.363Z,87.04
2023-01-20T09:41:26.423Z,87.75
2023-01-20T09:47:09.348Z,88.16
2023-01-20T09:52:51.999Z,87.85
2023-01-20T09:58:15.999Z,87.95
2023-01-20T10:03:37.288Z,88.74
2023-01-20T10:09:37.102Z,89.66
2023-01-20T10:16:00.365Z,89.21
2023-01-20T10:21:49.310Z,88.96
2023-01-20T10:27:03.103Z,89.11
2023-01-20T10:32:24.331Z,89.64
2023-01-20T10:37:28.530Z,89.58
2023-01-20T10:43:13.046Z,89.22
2023-01-20T10:49:39.177Z,89.32
2023-01-20T10:56:02.032Z,88.91
2023-01-20T11:01:13.854Z,88.36
2023-01-20T11:06:25.576Z,88.28
2023-01-20T11:12:29.566Z,87.46
2023-01-20T11:18:54.996Z,88.05
2023-01-20T11:25:33.115Z,88.59
2023-01-20T11:32:37.950Z,88.79
2023-01-20T11:39:23.080Z,89.91
2023-01-20T11:46:17.538Z,89.38
2023-01-20T11:52:14.685Z,90.29
2023-01-20T11:57:27.394Z,90.95
2023-01-20T12:02:34.090Z,91.05
2023-01-20T12:09:01.006Z,90.88
2023-01-20T12:15:33.953Z,91.09
2023-01-20T12:22:18.865Z,90.75
2023-01-20T12:29:15.763Z,90.34
2023-01-20T12:35:11.884Z,89.95
2023-01-20T12:41:31.669Z,89.88
2023-01-20T12:48:01.823Z,89.77
2023-01-20T13:01:47.415Z,89.50
2023-01-20T13:07:59.861Z,88.95
2023-01-20T13:14:55.892Z,89.64
2023-01-20T13:22:08.002Z,89.52
2023-01-20T13:28:36.748Z,90.11
2023-01-20T13:34:48.256Z,90.18
2023-01-20T13:41:09.834Z,89.89
2023-01-20T13:47:11.118Z,89.30
2023-01-20T13:54:27.475Z,89.21
2023-01-20T14:00:21.631Z,89.16
2023-01-20T14:06:33.660Z,88.54
2023-01-20T14:12:18.934Z,89.01
2023-01-20T14:17:28.412Z,88.65
2023-01-20T14:22:41.725Z,89.04
2023-01-20T14:28:39.233Z,88.99
2023-01-20T14:34:57.668Z,88.85
2023-01-20T14:41:13.069Z,89.03
2023-01-20T14:47:14.996Z,88.59
2023-01-20T14:53:21.921Z,87.72
2023-01-20T14:59:50.331Z,88.22
2023-01-20T15:06:17.850Z,88.83
2023-01-20T15:11:43.157Z,89.44
2023-01-20T23:25:10.587Z,89.56
2023-01-20T23:31:16.878Z,89.50
2023-01-20T23:46:40.703Z,90.51
2023-01-20T23:51:57.842Z,89.52
2023-01-20T23:57:32.180Z,89.49
